createdAt,value
2022-12-03T00:01:33.661Z,102068.28
2022-12-03T00:04:01.663Z,102069.13
2022-12-03T00:06:34.544Z,102066.56
2022-12-03T00:09:03.382Z,102061.47
2022-12-03T00:11:31.408Z,102064.84
2022-12-03T00:13:59.317Z,102067.44
2022-12-03T00:16:27.545Z,102064.09
2022-12-03T00:18:55.606Z,102055.41
2022-12-03T00:21:24.806Z,102062.28
2022-12-03T00:23:54.312Z,102056.25
2022-12-03T00:26:22.277Z,102063.97
2022-12-03T00:28:50.981Z,102063.94
2022-12-03T00:31:21.256Z,102058.03
2022-12-03T00:33:50.568Z,102061.47
2022-12-03T00:36:19.353Z,102060.63
2022-12-03T00:38:47.360Z,102050.25
2022-12-03T00:41:16.717Z,102051.06
2022-12-03T00:43:44.661Z,102057.00
2022-12-03T00:46:15.757Z,102048.38
2022-12-03T00:48:47.733Z,102048.50
2022-12-03T00:51:15.672Z,102046.81
2022-12-03T00:53:43.663Z,102041.63
2022-12-03T00:56:11.663Z,102050.22
2022-12-03T00:58:40.963Z,102051.94
2022-12-03T01:01:08.906Z,102051.09
2022-12-03T01:03:37.307Z,102053.69
2022-12-03T01:06:05.493Z,102049.34
2022-12-03T01:08:34.556Z,102044.19
2022-12-03T01:11:02.583Z,102046.78
2022-12-03T01:13:30.711Z,102052.81
2022-12-03T01:16:00.178Z,102055.41
2022-12-03T01:18:28.180Z,102057.09
2022-12-03T01:20:56.170Z,102057.94
2022-12-03T01:23:24.153Z,102054.59
2022-12-03T01:25:52.088Z,102054.63
2022-12-03T01:28:20.052Z,102059.75
2022-12-03T01:31:02.004Z,102050.31
2022-12-03T01:33:31.403Z,102052.00
2022-12-03T01:35:59.592Z,102054.53
2022-12-03T01:38:27.559Z,102055.44
2022-12-03T01:40:55.978Z,102044.19
2022-12-03T01:43:23.993Z,102051.88
2022-12-03T01:45:52.139Z,102053.63
2022-12-03T01:48:20.339Z,102057.91
2022-12-03T01:50:49.774Z,102044.22
2022-12-03T01:53:19.319Z,102047.66
2022-12-03T01:55:49.042Z,102047.69
2022-12-03T01:58:17.765Z,102045.94
2022-12-03T02:00:45.876Z,102045.97
2022-12-03T02:03:20.740Z,102043.38
2022-12-03T02:05:50.483Z,102038.19
2022-12-03T02:08:35.464Z,102039.94
2022-12-03T02:11:07.527Z,102045.13
2022-12-03T02:13:49.018Z,102039.91
2022-12-03T02:16:17.124Z,102039.13
2022-12-03T02:18:46.244Z,102040.00
2022-12-03T02:21:24.444Z,102038.25
2022-12-03T02:24:02.936Z,102041.66
2022-12-03T02:26:32.473Z,102046.84
2022-12-03T02:29:01.330Z,102045.97
2022-12-03T02:31:29.817Z,102042.50
2022-12-03T02:33:57.870Z,102037.34
2022-12-03T02:36:26.019Z,102039.97
2022-12-03T02:38:53.982Z,102041.69
2022-12-03T02:41:39.767Z,102042.53
2022-12-03T02:44:09.957Z,102039.94
2022-12-03T02:46:38.183Z,102041.63
2022-12-03T02:49:07.387Z,102038.19
2022-12-03T02:51:36.012Z,102037.19
2022-12-03T02:54:04.965Z,102044.19
2022-12-03T02:56:33.977Z,102041.59
2022-12-03T02:59:09.665Z,102045.94
2022-12-03T03:01:39.278Z,102040.69
2022-12-03T03:04:07.791Z,102047.63
2022-12-03T03:06:36.000Z,102045.13
2022-12-03T03:09:04.668Z,102038.19
2022-12-03T03:11:32.681Z,102037.34
2022-12-03T03:14:02.471Z,102039.84
2022-12-03T03:16:30.719Z,102036.44
2022-12-03T03:19:00.109Z,102036.47
2022-12-03T03:21:28.229Z,102033.84
2022-12-03T03:23:56.391Z,102035.59
2022-12-03T03:26:24.380Z,102029.53
2022-12-03T03:28:53.106Z,102033.84
2022-12-03T03:31:24.694Z,102028.75
2022-12-03T03:33:52.972Z,102020.94
2022-12-03T03:36:23.429Z,102022.66
2022-12-03T03:38:51.796Z,102022.75
2022-12-03T03:41:20.897Z,102020.97
2022-12-03T03:43:50.921Z,102021.91
2022-12-03T03:46:20.362Z,102019.34
2022-12-03T03:48:49.747Z,102016.72
2022-12-03T03:51:19.368Z,102013.22
2022-12-03T03:53:50.906Z,102013.22
2022-12-03T03:56:21.176Z,102005.50
2022-12-03T03:58:49.350Z,102002.94
2022-12-03T04:01:19.197Z,102008.97
2022-12-03T04:03:47.393Z,102010.75
2022-12-03T04:06:15.419Z,102004.66
2022-12-03T04:08:43.496Z,102002.06
2022-12-03T04:11:30.438Z,102001.19
2022-12-03T04:13:58.511Z,101992.59
2022-12-03T04:16:26.626Z,101996.91
2022-12-03T04:18:54.876Z,101994.25
2022-12-03T04:21:42.540Z,101991.69
2022-12-03T04:24:12.713Z,101988.13
2022-12-03T04:26:59.656Z,101994.19
2022-12-03T04:29:27.807Z,101978.78
2022-12-03T04:32:13.586Z,101977.06
2022-12-03T04:34:58.924Z,101986.53
2022-12-03T04:37:27.228Z,101986.53
2022-12-03T04:39:58.235Z,101981.28
2022-12-03T04:42:27.777Z,101979.63
2022-12-03T04:44:56.090Z,101981.34
2022-12-03T04:47:24.495Z,101986.56
2022-12-03T04:49:53.017Z,101984.91
2022-12-03T04:52:22.424Z,101989.13
2022-12-03T04:54:50.524Z,101978.78
2022-12-03T04:57:18.680Z,101985.63
2022-12-03T04:59:48.006Z,101981.28
2022-12-03T05:02:16.127Z,101982.13
2022-12-03T05:04:44.183Z,101977.06
2022-12-03T05:07:12.318Z,101978.84
2022-12-03T05:09:40.318Z,101974.34
2022-12-03T05:12:08.571Z,101977.00
2022-12-03T05:14:36.748Z,101971.13
2022-12-03T05:17:06.357Z,101960.81
2022-12-03T05:19:51.768Z,101964.25
2022-12-03T05:22:19.661Z,101967.72
2022-12-03T05:24:47.586Z,101965.97
2022-12-03T05:27:20.194Z,101964.22
2022-12-03T05:29:51.292Z,101964.28
2022-12-03T05:32:20.840Z,101965.97
2022-12-03T05:34:48.863Z,101962.53
2022-12-03T05:37:17.023Z,101971.19
2022-12-03T05:39:45.077Z,101969.47
2022-12-03T05:42:30.634Z,101965.16
2022-12-03T05:44:58.574Z,101960.81
2022-12-03T05:47:27.833Z,101959.13
2022-12-03T05:49:55.964Z,101960.88
2022-12-03T05:52:23.877Z,101954.84
2022-12-03T05:54:52.073Z,101953.09
2022-12-03T05:57:20.374Z,101958.25
2022-12-03T05:59:48.271Z,101953.13
2022-12-03T06:02:16.247Z,101961.72
2022-12-03T06:04:45.551Z,101960.00
2022-12-03T06:07:14.281Z,101959.16
2022-12-03T06:09:42.631Z,101962.56
2022-12-03T06:12:10.688Z,101961.75
2022-12-03T06:14:38.637Z,101962.63
2022-12-03T06:17:06.693Z,101960.06
2022-12-03T06:19:34.693Z,101962.63
2022-12-03T06:22:04.081Z,101959.22
2022-12-03T06:24:31.987Z,101961.78
2022-12-03T06:26:59.899Z,101965.22
2022-12-03T06:29:27.801Z,101956.63
2022-12-03T06:31:55.704Z,101954.03
2022-12-03T06:34:23.688Z,101960.00
2022-12-03T06:36:51.587Z,101960.88
2022-12-03T06:39:20.910Z,101964.34
2022-12-03T06:41:48.863Z,101957.50
2022-12-03T06:44:17.048Z,101960.03
2022-12-03T06:46:44.988Z,101958.38
2022-12-03T06:49:13.070Z,101962.66
2022-12-03T06:51:41.017Z,101955.78
2022-12-03T06:54:09.157Z,101960.09
2022-12-03T06:56:45.168Z,101956.63
2022-12-03T06:59:17.956Z,101954.91
2022-12-03T07:01:46.340Z,101952.31
2022-12-03T07:04:14.937Z,101954.94
2022-12-03T07:06:42.903Z,101950.63
2022-12-03T07:09:10.882Z,101951.44
2022-12-03T07:11:44.087Z,101954.09
2022-12-03T07:14:12.162Z,101956.69
2022-12-03T07:16:43.025Z,101952.38
2022-12-03T07:19:11.106Z,101948.91
2022-12-03T07:21:39.312Z,101952.38
2022-12-03T07:24:07.964Z,101953.22
2022-12-03T07:26:35.915Z,101960.09
2022-12-03T07:29:05.426Z,101949.75
2022-12-03T07:31:33.477Z,101953.22
2022-12-03T07:34:02.092Z,101952.34
2022-12-03T07:36:30.019Z,101952.38
2022-12-03T07:38:57.872Z,101961.00
2022-12-03T07:41:25.753Z,101950.69
2022-12-03T07:43:53.685Z,101950.69
2022-12-03T07:46:23.034Z,101957.50
2022-12-03T07:48:50.965Z,101954.94
2022-12-03T07:51:18.876Z,101947.25
2022-12-03T07:53:46.770Z,101953.25
2022-12-03T07:56:14.687Z,101947.25
2022-12-03T07:58:42.578Z,101945.50
2022-12-03T08:01:11.256Z,101948.09
2022-12-03T08:03:42.796Z,101945.53
2022-12-03T08:06:10.708Z,101945.50
2022-12-03T08:08:38.766Z,101941.16
2022-12-03T08:11:07.483Z,101946.19
2022-12-03T08:13:36.035Z,101943.72
2022-12-03T08:16:16.521Z,101940.28
2022-12-03T08:18:46.835Z,101933.44
2022-12-03T08:21:16.441Z,101936.84
2022-12-03T08:23:44.394Z,101933.47
2022-12-03T08:26:20.550Z,101941.09
2022-12-03T08:28:48.645Z,101937.69
2022-12-03T08:31:19.950Z,101935.13
2022-12-03T08:33:51.025Z,101935.97
2022-12-03T08:36:22.783Z,101926.63
2022-12-03T08:38:53.133Z,101931.69
2022-12-03T08:41:35.897Z,101934.34
2022-12-03T08:44:17.101Z,101935.97
2022-12-03T08:46:45.883Z,101940.22
2022-12-03T08:49:16.670Z,101933.38
2022-12-03T08:51:44.609Z,101944.53
2022-12-03T08:54:15.891Z,101933.34
2022-12-03T08:56:44.801Z,101923.88
2022-12-03T08:59:41.429Z,101927.31
2022-12-03T09:02:27.056Z,101925.63
2022-12-03T09:04:56.496Z,101935.06
2022-12-03T09:07:24.601Z,101935.09
2022-12-03T09:09:52.896Z,101932.50
2022-12-03T09:12:20.889Z,101927.34
2022-12-03T09:14:56.633Z,101926.53
2022-12-03T09:17:32.282Z,101932.53
2022-12-03T09:20:01.652Z,101927.41
2022-12-03T09:22:29.615Z,101929.94
2022-12-03T09:24:57.624Z,101926.50
2022-12-03T09:27:25.576Z,101922.09
2022-12-03T09:29:53.574Z,101923.78
2022-12-03T09:32:21.594Z,101916.91
2022-12-03T09:34:49.723Z,101922.03
2022-12-03T09:37:19.102Z,101916.94
2022-12-03T09:39:47.028Z,101916.00
2022-12-03T09:42:16.295Z,101908.25
2022-12-03T09:44:44.921Z,101908.31
2022-12-03T09:47:13.265Z,101911.69
2022-12-03T09:49:44.987Z,101909.22
2022-12-03T09:52:23.181Z,101912.59
2022-12-03T09:54:54.866Z,101910.97
2022-12-03T09:57:23.183Z,101906.66
2022-12-03T09:59:51.437Z,101899.75
2022-12-03T10:02:23.816Z,101889.38
2022-12-03T10:04:52.234Z,101896.28
2022-12-03T10:07:21.042Z,101891.19
2022-12-03T10:09:49.097Z,101888.50
2022-12-03T10:12:24.146Z,101888.53
2022-12-03T10:14:53.620Z,101883.31
2022-12-03T10:17:22.036Z,101883.25
2022-12-03T10:19:50.076Z,101883.38
2022-12-03T10:22:17.991Z,101884.75
2022-12-03T10:24:45.912Z,101883.97
2022-12-03T10:27:31.583Z,101877.28
2022-12-03T10:30:01.245Z,101872.06
2022-12-03T10:32:41.062Z,101874.63
2022-12-03T10:35:12.014Z,101878.94
2022-12-03T10:37:58.180Z,101871.22
2022-12-03T10:40:28.107Z,101873.00
2022-12-03T10:43:14.691Z,101866.81
2022-12-03T10:45:43.060Z,101863.44
2022-12-03T10:48:15.905Z,101864.06
2022-12-03T10:50:50.386Z,101865.88
2022-12-03T10:53:19.730Z,101865.94
2022-12-03T10:55:49.238Z,101862.56
2022-12-03T10:58:24.353Z,101873.78
2022-12-03T11:00:55.875Z,101865.19
2022-12-03T11:03:25.607Z,101865.09
2022-12-03T11:05:55.269Z,101863.25
2022-12-03T11:08:25.441Z,101865.81
2022-12-03T11:11:00.594Z,101857.28
2022-12-03T11:13:45.422Z,101851.22
2022-12-03T11:16:17.528Z,101851.25
2022-12-03T11:19:03.257Z,101852.16
2022-12-03T11:21:31.660Z,101841.81
2022-12-03T11:24:20.306Z,101847.91
2022-12-03T11:27:15.990Z,101835.88
2022-12-03T11:29:59.763Z,101842.69
2022-12-03T11:33:07.395Z,101827.22
2022-12-03T11:36:27.795Z,101829.69
2022-12-03T11:39:04.809Z,101818.53
2022-12-03T11:41:34.821Z,101822.81
2022-12-03T11:44:31.132Z,101819.25
2022-12-03T11:47:14.184Z,101825.38
2022-12-03T11:49:49.891Z,101812.28
2022-12-03T11:52:26.492Z,101810.59
2022-12-03T11:54:58.880Z,101814.03
2022-12-03T11:57:38.255Z,101811.47
2022-12-03T12:00:20.026Z,101811.59
2022-12-03T12:02:50.421Z,101814.16
2022-12-03T12:05:25.360Z,101811.59
2022-12-03T12:07:54.157Z,101817.66
2022-12-03T12:10:45.676Z,101813.03
2022-12-03T12:13:41.810Z,101820.84
2022-12-03T12:16:10.849Z,101819.06
2022-12-03T12:18:42.081Z,101820.88
2022-12-03T12:21:42.601Z,101818.22
2022-12-03T12:24:32.876Z,101816.38
2022-12-03T12:27:03.646Z,101811.28
2022-12-03T12:29:31.679Z,101814.84
2022-12-03T12:32:03.630Z,101800.16
2022-12-03T12:34:33.408Z,101808.16
2022-12-03T12:37:03.798Z,101800.38
2022-12-03T12:39:32.256Z,101801.19
2022-12-03T12:42:00.357Z,101802.84
2022-12-03T12:44:28.676Z,101809.72
2022-12-03T12:46:57.255Z,101797.38
2022-12-03T12:49:26.901Z,101795.28
2022-12-03T12:51:56.265Z,101796.56
2022-12-03T12:54:24.321Z,101791.53
2022-12-03T12:56:53.134Z,101793.44
2022-12-03T12:59:23.144Z,101787.09
2022-12-03T13:01:51.742Z,101783.84
2022-12-03T13:04:24.917Z,101786.25
2022-12-03T13:06:54.946Z,101778.59
2022-12-03T13:09:26.445Z,101773.44
2022-12-03T13:11:57.025Z,101768.50
2022-12-03T13:14:26.503Z,101767.84
2022-12-03T13:16:57.016Z,101760.13
2022-12-03T13:19:26.734Z,101758.34
2022-12-03T13:21:57.080Z,101763.47
2022-12-03T13:24:37.430Z,101758.88
2022-12-03T13:27:22.930Z,101763.28
2022-12-03T13:29:55.566Z,101761.69
2022-12-03T13:32:29.181Z,101766.88
2022-12-03T13:35:06.902Z,101760.56
2022-12-03T13:37:35.261Z,101754.78
2022-12-03T13:40:19.513Z,101751.41
2022-12-03T13:42:48.199Z,101748.75
2022-12-03T13:45:38.511Z,101762.50
2022-12-03T13:48:20.924Z,101760.69
2022-12-03T13:50:48.998Z,101752.13
2022-12-03T13:53:22.277Z,101747.84
2022-12-03T13:56:01.834Z,101751.22
2022-12-03T13:58:29.816Z,101749.50
2022-12-03T14:00:57.783Z,101752.38
2022-12-03T14:03:25.782Z,101748.78
2022-12-03T14:05:53.825Z,101745.41
2022-12-03T14:08:21.829Z,101752.28
2022-12-03T14:10:54.296Z,101751.25
2022-12-03T14:13:26.733Z,101750.41
2022-12-03T14:15:54.618Z,101757.44
2022-12-03T14:18:22.575Z,101759.00
2022-12-03T14:20:50.482Z,101757.91
2022-12-03T14:23:18.504Z,101753.84
2022-12-03T14:25:46.460Z,101754.81
2022-12-03T14:28:15.861Z,101747.13
2022-12-03T14:30:43.798Z,101747.19
2022-12-03T14:33:11.787Z,101750.75
2022-12-03T14:35:39.758Z,101751.41
2022-12-03T14:38:07.751Z,101750.50
2022-12-03T14:40:38.335Z,101747.00
2022-12-03T14:43:07.963Z,101749.41
2022-12-03T14:45:37.488Z,101742.84
2022-12-03T14:48:05.694Z,101745.44
2022-12-03T14:50:33.634Z,101748.03
2022-12-03T14:53:01.692Z,101748.88
2022-12-03T14:55:29.666Z,101745.38
2022-12-03T14:57:57.542Z,101754.09
2022-12-03T15:00:25.631Z,101751.53
2022-12-03T15:02:55.080Z,101754.03
2022-12-03T15:05:28.181Z,101763.50
2022-12-03T15:07:57.392Z,101753.16
2022-12-03T15:10:25.406Z,101765.22
2022-12-03T15:12:53.365Z,101759.19
2022-12-03T15:15:21.333Z,101760.03
2022-12-03T15:17:49.362Z,101753.16
2022-12-03T15:20:20.982Z,101751.53
2022-12-03T15:22:48.948Z,101756.66
2022-12-03T15:25:24.128Z,101759.91
2022-12-03T15:27:52.400Z,101760.72
2022-12-03T15:30:21.345Z,101760.72
2022-12-03T15:32:49.386Z,101761.44
2022-12-03T15:35:18.675Z,101755.66
2022-12-03T15:37:48.276Z,101756.38
2022-12-03T15:40:16.475Z,101753.94
2022-12-03T15:42:44.525Z,101747.88
2022-12-03T15:45:15.280Z,101751.22
2022-12-03T15:47:43.772Z,101751.22
2022-12-03T15:50:12.993Z,101749.09
2022-12-03T15:52:41.250Z,101757.06
2022-12-03T15:55:11.333Z,101748.72
2022-12-03T15:57:39.324Z,101754.75
2022-12-03T16:00:09.727Z,101751.84
2022-12-03T16:02:40.539Z,101750.25
2022-12-03T16:05:13.000Z,101744.31
2022-12-03T16:07:41.827Z,101749.59
2022-12-03T16:10:13.602Z,101747.84
2022-12-03T16:12:41.550Z,101750.47
2022-12-03T16:15:10.333Z,101745.25
2022-12-03T16:17:38.435Z,101747.78
2022-12-03T16:20:07.694Z,101750.47
2022-12-03T16:22:35.777Z,101742.38
2022-12-03T16:25:05.126Z,101745.31
2022-12-03T16:27:34.592Z,101742.59
2022-12-03T16:30:04.711Z,101750.19
2022-12-03T16:32:32.883Z,101752.91
2022-12-03T16:35:00.843Z,101735.78
2022-12-03T16:37:28.851Z,101735.69
2022-12-03T16:39:57.055Z,101730.59
2022-12-03T16:42:28.302Z,101739.72
2022-12-03T16:45:22.976Z,101732.84
2022-12-03T16:47:51.382Z,101730.56
2022-12-03T16:50:27.361Z,101735.63
2022-12-03T16:52:57.314Z,101745.91
2022-12-03T16:55:25.469Z,101733.03
2022-12-03T16:57:53.506Z,101732.78
2022-12-03T17:00:23.047Z,101736.53
2022-12-03T17:02:51.070Z,101738.09
2022-12-03T17:05:19.134Z,101741.66
2022-12-03T17:07:47.190Z,101737.31
2022-12-03T17:10:15.329Z,101735.50
2022-12-03T17:13:08.175Z,101731.06
2022-12-03T17:15:33.475Z,101743.31
2022-12-03T17:18:03.432Z,101733.41
2022-12-03T17:20:31.721Z,101735.34
2022-12-03T17:22:59.860Z,101744.22
2022-12-03T17:25:28.569Z,101739.03
2022-12-03T17:27:56.582Z,101732.81
2022-12-03T17:30:24.602Z,101729.22
2022-12-03T17:32:53.973Z,101727.66
2022-12-03T17:35:21.941Z,101720.63
2022-12-03T17:37:49.907Z,101725.06
2022-12-03T17:40:18.561Z,101726.19
2022-12-03T17:42:47.365Z,101727.75
2022-12-03T17:45:15.484Z,101726.00
2022-12-03T17:47:43.461Z,101721.72
2022-12-03T17:50:13.421Z,101726.75
2022-12-03T17:52:41.486Z,101722.53
2022-12-03T17:55:13.920Z,101725.09
2022-12-03T17:57:45.959Z,101719.69
2022-12-03T18:00:14.664Z,101725.09
2022-12-03T18:02:43.178Z,101717.25
2022-12-03T18:05:14.530Z,101722.41
2022-12-03T18:07:42.548Z,101721.41
2022-12-03T18:10:12.392Z,101724.06
2022-12-03T18:12:40.352Z,101729.19
2022-12-03T18:15:10.102Z,101728.41
2022-12-03T18:17:38.095Z,101729.41
2022-12-03T18:20:07.741Z,101727.47
2022-12-03T18:22:37.598Z,101721.75
2022-12-03T18:25:06.658Z,101716.66
2022-12-03T18:27:34.929Z,101722.50
2022-12-03T18:30:02.986Z,101726.88
2022-12-03T18:32:31.199Z,101719.75
2022-12-03T18:34:59.376Z,101721.81
2022-12-03T18:37:29.053Z,101722.50
2022-12-03T18:39:59.121Z,101725.00
2022-12-03T18:42:27.638Z,101717.25
2022-12-03T18:44:57.356Z,101715.41
2022-12-03T18:47:27.851Z,101722.06
2022-12-03T18:49:58.096Z,101713.59
2022-12-03T18:52:26.342Z,101714.47
2022-12-03T18:54:55.265Z,101718.94
2022-12-03T18:57:24.671Z,101719.97
2022-12-03T18:59:53.384Z,101718.25
2022-12-03T19:05:11.009Z,101721.59
2022-12-03T19:07:39.485Z,101720.50
2022-12-03T19:10:09.295Z,101715.75
2022-12-03T19:12:39.519Z,101714.66
2022-12-03T19:15:08.879Z,101718.75
2022-12-03T19:17:39.327Z,101727.53
2022-12-03T19:20:09.086Z,101726.25
2022-12-03T19:22:37.564Z,101718.97
2022-12-03T19:25:06.391Z,101727.44
2022-12-03T19:27:34.414Z,101718.09
2022-12-03T19:30:03.800Z,101722.50
2022-12-03T19:32:31.899Z,101722.50
2022-12-03T19:35:01.030Z,101724.88
2022-12-03T19:37:29.016Z,101725.06
2022-12-03T19:39:57.792Z,101724.91
2022-12-03T19:42:26.884Z,101718.88
2022-12-03T19:44:54.927Z,101728.31
2022-12-03T19:47:24.738Z,101726.75
2022-12-03T19:49:54.245Z,101725.13
2022-12-03T19:52:22.517Z,101733.91
2022-12-03T19:54:50.500Z,101733.50
2022-12-03T19:57:23.218Z,101728.38
2022-12-03T19:59:52.100Z,101732.75
2022-12-03T20:02:20.507Z,101720.81
2022-12-03T20:04:50.106Z,101726.84
2022-12-03T20:07:18.154Z,101723.78
2022-12-03T20:09:46.185Z,101723.72
2022-12-03T20:12:14.275Z,101715.28
2022-12-03T20:14:42.331Z,101723.16
2022-12-03T20:17:10.367Z,101714.00
2022-12-03T20:19:38.602Z,101712.88
2022-12-03T20:22:08.099Z,101718.06
2022-12-03T20:24:36.126Z,101712.84
2022-12-03T20:27:04.178Z,101718.00
2022-12-03T20:29:32.302Z,101713.00
2022-12-03T20:32:01.124Z,101712.06
2022-12-03T20:34:29.270Z,101712.56
2022-12-03T20:36:57.380Z,101724.25
2022-12-03T20:39:27.985Z,101724.00
2022-12-03T20:41:55.966Z,101730.63
2022-12-03T20:44:24.189Z,101736.78
2022-12-03T20:46:52.284Z,101729.16
2022-12-03T20:49:20.395Z,101740.38
2022-12-03T20:51:50.937Z,101732.69
2022-12-03T20:54:19.085Z,101726.81
2022-12-03T20:56:48.549Z,101736.66
2022-12-03T20:59:18.355Z,101732.34
2022-12-03T21:01:46.630Z,101725.94
2022-12-03T21:04:16.033Z,101731.78
2022-12-03T21:06:44.073Z,101729.91
2022-12-03T21:09:13.780Z,101733.47
2022-12-03T21:11:42.434Z,101727.56
2022-12-03T21:14:12.386Z,101723.94
2022-12-03T21:19:30.960Z,101724.72
2022-12-03T21:21:59.334Z,101718.97
2022-12-03T21:24:27.641Z,101729.94
2022-12-03T21:26:55.602Z,101722.34
2022-12-03T21:29:25.316Z,101724.94
2022-12-03T21:31:53.359Z,101721.78
2022-12-03T21:34:21.763Z,101713.72
2022-12-03T21:36:49.888Z,101703.53
2022-12-03T21:39:18.725Z,101706.13
2022-12-03T21:42:33.353Z,101716.28
2022-12-03T21:44:36.173Z,101712.09
2022-12-03T21:47:12.136Z,101699.09
2022-12-03T21:49:42.365Z,101701.81
2022-12-03T21:52:10.864Z,101700.13
2022-12-03T21:54:38.950Z,101700.84
2022-12-03T21:57:07.079Z,101705.06
2022-12-03T21:59:36.396Z,101710.03
2022-12-03T22:02:06.830Z,101701.88
2022-12-03T22:04:34.965Z,101708.66
2022-12-03T22:07:03.842Z,101704.44
2022-12-03T22:09:32.636Z,101716.34
2022-12-03T22:12:01.232Z,101710.38
2022-12-03T22:14:29.464Z,101707.56
2022-12-03T22:16:59.252Z,101705.00
2022-12-03T22:19:27.650Z,101705.84
2022-12-03T22:21:55.607Z,101699.19
2022-12-03T22:24:24.146Z,101694.94
2022-12-03T22:26:54.576Z,101691.47
2022-12-03T22:29:22.643Z,101701.78
2022-12-03T22:31:53.434Z,101688.72
2022-12-03T22:34:23.062Z,101698.28
2022-12-03T22:36:51.207Z,101701.66
2022-12-03T22:39:19.451Z,101689.69
2022-12-03T22:41:47.557Z,101700.13
2022-12-03T22:44:17.525Z,101700.97
2022-12-03T22:46:45.716Z,101694.13
2022-12-03T22:49:14.054Z,101693.91
2022-12-03T22:52:13.604Z,101682.75
2022-12-03T22:54:41.594Z,101678.25
2022-12-03T22:57:09.770Z,101680.06
2022-12-03T22:59:37.881Z,101681.22
2022-12-03T23:02:06.476Z,101665.34
2022-12-03T23:04:34.587Z,101674.81
2022-12-03T23:07:02.715Z,101679.28
2022-12-03T23:09:32.146Z,101671.66
2022-12-03T23:12:00.106Z,101680.22
2022-12-03T23:14:28.047Z,101673.19
2022-12-03T23:16:56.217Z,101669.75
2022-12-03T23:19:24.350Z,101677.53
2022-12-03T23:21:52.289Z,101669.69
2022-12-03T23:24:22.066Z,101660.16
2022-12-03T23:26:51.637Z,101662.78
2022-12-03T23:29:19.733Z,101665.38
2022-12-03T23:31:47.986Z,101670.50
2022-12-03T23:34:16.090Z,101659.28
2022-12-03T23:36:44.203Z,101659.34
2022-12-03T23:39:12.170Z,101656.75
2022-12-03T23:41:40.180Z,101656.91
2022-12-03T23:44:10.030Z,101653.25
2022-12-03T23:46:40.357Z,101654.13
2022-12-03T23:49:10.569Z,101641.28
2022-12-03T23:51:39.608Z,101645.69
2022-12-03T23:54:07.973Z,101649.00
2022-12-03T23:56:39.428Z,101641.13
2022-12-03T23:59:11.534Z,101638.75
